createdAt,value
2018-03-11T00:01:38.968Z,59.30
2018-03-11T00:04:04.953Z,56.73
2018-03-11T00:06:30.978Z,60.72
2018-03-11T00:08:56.994Z,57.90
2018-03-11T00:11:23.003Z,52.95
2018-03-11T00:13:49.053Z,48.45
2018-03-11T00:16:15.082Z,43.40
2018-03-11T00:18:41.130Z,46.50
2018-03-11T00:21:07.157Z,45.28
2018-03-11T00:23:33.164Z,45.10
2018-03-11T00:25:59.183Z,39.95
2018-03-11T00:28:25.211Z,37.50
2018-03-11T00:30:51.223Z,44.28
2018-03-11T00:33:17.225Z,40.95
2018-03-11T00:35:43.257Z,46.15
2018-03-11T00:38:09.264Z,42.03
2018-03-11T00:40:35.906Z,43.53
2018-03-11T00:43:02.006Z,39.00
2018-03-11T00:45:28.003Z,32.17
2018-03-11T00:47:54.009Z,32.38
2018-03-11T00:50:20.190Z,30.62
2018-03-11T00:52:46.302Z,38.47
2018-03-11T00:55:12.300Z,33.65
2018-03-11T00:57:38.336Z,31.27
2018-03-11T01:00:04.453Z,34.20
2018-03-11T01:02:30.533Z,33.53
2018-03-11T01:04:56.568Z,30.67
2018-03-11T01:07:22.583Z,29.85
2018-03-11T01:09:48.648Z,30.02
2018-03-11T01:12:14.751Z,31.87
2018-03-11T01:14:40.773Z,31.67
2018-03-11T01:17:06.804Z,31.95
2018-03-11T01:19:32.964Z,33.03
2018-03-11T01:21:58.987Z,33.38
2018-03-11T01:24:25.014Z,32.53
2018-03-11T01:26:51.045Z,30.75
2018-03-11T01:29:17.045Z,34.95
2018-03-11T01:31:43.051Z,31.05
2018-03-11T01:34:09.096Z,30.60
2018-03-11T01:36:35.112Z,31.95
2018-03-11T01:39:01.123Z,32.97
2018-03-11T01:41:27.105Z,32.55
2018-03-11T01:43:53.102Z,32.23
2018-03-11T01:46:19.136Z,34.90
2018-03-11T01:48:45.129Z,32.25
2018-03-11T01:51:11.119Z,33.78
2018-03-11T01:53:37.121Z,33.22
2018-03-11T01:56:03.184Z,30.05
2018-03-11T01:58:29.241Z,30.30
2018-03-11T02:00:55.201Z,29.65
2018-03-11T02:03:21.205Z,29.87
2018-03-11T02:05:47.201Z,29.75
2018-03-11T02:08:13.176Z,28.95
2018-03-11T02:10:39.178Z,32.03
2018-03-11T02:13:05.214Z,38.20
2018-03-11T02:15:31.216Z,38.85
2018-03-11T02:17:57.198Z,42.85
2018-03-11T02:20:23.189Z,42.97
2018-03-11T02:22:49.196Z,45.85
2018-03-11T02:25:15.217Z,41.95
2018-03-11T02:27:41.228Z,39.05
2018-03-11T02:30:07.211Z,41.17
2018-03-11T02:32:33.230Z,43.75
2018-03-11T02:34:59.210Z,47.78
2018-03-11T02:37:25.311Z,43.90
2018-03-11T02:39:51.325Z,45.90
2018-03-11T02:42:18.009Z,51.65
2018-03-11T02:44:44.138Z,50.72
2018-03-11T02:47:10.164Z,53.53
2018-03-11T02:49:36.145Z,63.00
2018-03-11T02:52:02.283Z,64.03
2018-03-11T02:54:28.326Z,64.60
2018-03-11T02:56:54.331Z,65.82
2018-03-11T02:59:20.322Z,71.68
2018-03-11T03:01:46.418Z,77.90
2018-03-11T03:04:12.537Z,72.65
2018-03-11T03:06:38.564Z,76.22
2018-03-11T03:09:04.555Z,75.10
2018-03-11T03:11:30.642Z,76.62
2018-03-11T03:13:56.675Z,77.07
2018-03-11T03:16:22.684Z,75.35
2018-03-11T03:18:48.707Z,85.35
2018-03-11T03:21:14.806Z,85.10
2018-03-11T03:23:40.836Z,82.10
2018-03-11T03:26:06.840Z,87.40
2018-03-11T03:28:32.870Z,88.10
2018-03-11T03:30:58.889Z,86.10
2018-03-11T03:33:24.901Z,85.45
2018-03-11T03:35:50.950Z,95.03
2018-03-11T03:38:16.969Z,94.60
2018-03-11T03:40:42.958Z,91.85
2018-03-11T03:43:08.963Z,89.25
2018-03-11T03:45:35.001Z,92.75
2018-03-11T03:48:00.990Z,98.05
2018-03-11T03:50:26.994Z,100.60
2018-03-11T03:52:52.994Z,104.82
2018-03-11T03:55:19.005Z,99.28
2018-03-11T03:57:45.022Z,104.47
2018-03-11T04:00:11.175Z,113.22
2018-03-11T04:02:37.234Z,107.78
2018-03-11T04:05:03.221Z,111.57
2018-03-11T04:07:29.280Z,111.72
2018-03-11T04:09:55.261Z,116.65
2018-03-11T04:12:21.258Z,101.20
2018-03-11T04:14:47.248Z,97.05
2018-03-11T04:17:13.261Z,103.32
2018-03-11T04:19:39.274Z,98.70
2018-03-11T04:22:05.285Z,105.63
2018-03-11T04:24:31.334Z,102.45
2018-03-11T04:26:57.327Z,100.82
2018-03-11T04:29:23.366Z,86.87
2018-03-11T04:31:49.394Z,92.22
2018-03-11T04:34:15.434Z,96.10
2018-03-11T04:36:41.488Z,91.25
2018-03-11T04:39:07.501Z,85.72
2018-03-11T04:41:33.531Z,78.40
2018-03-11T04:43:59.529Z,77.20
2018-03-11T04:46:25.591Z,84.90
2018-03-11T04:48:51.578Z,79.78
2018-03-11T04:51:17.585Z,76.37
2018-03-11T04:53:44.314Z,70.00
2018-03-11T04:56:10.376Z,67.25
2018-03-11T04:58:36.741Z,62.95
2018-03-11T05:01:02.763Z,65.87
2018-03-11T05:03:28.770Z,61.25
2018-03-11T05:05:54.957Z,67.12
2018-03-11T05:08:20.932Z,62.03
2018-03-11T05:10:46.924Z,64.23
2018-03-11T05:13:12.944Z,58.38
2018-03-11T05:15:38.962Z,57.13
2018-03-11T05:18:04.976Z,56.53
2018-03-11T05:20:31.010Z,56.53
2018-03-11T05:22:57.041Z,55.28
2018-03-11T05:25:23.013Z,56.63
2018-03-11T05:27:48.991Z,53.03
2018-03-11T05:30:14.991Z,55.50
2018-03-11T05:32:40.994Z,58.55
2018-03-11T05:35:06.987Z,55.15
2018-03-11T05:37:32.962Z,56.37
2018-03-11T05:39:58.955Z,55.13
2018-03-11T05:42:24.955Z,61.15
2018-03-11T05:44:50.973Z,58.05
2018-03-11T05:47:17.055Z,57.80
2018-03-11T05:49:43.048Z,63.83
2018-03-11T05:52:09.042Z,62.70
2018-03-11T05:54:35.043Z,59.03
2018-03-11T05:57:01.062Z,60.45
2018-03-11T05:59:27.016Z,62.55
2018-03-11T06:01:53.046Z,66.33
2018-03-11T06:04:19.067Z,66.47
2018-03-11T06:06:45.053Z,64.15
2018-03-11T06:09:11.062Z,64.03
2018-03-11T06:11:37.145Z,67.00
2018-03-11T06:14:03.135Z,66.50
2018-03-11T06:16:29.141Z,66.82
2018-03-11T06:18:55.139Z,69.03
2018-03-11T06:21:21.134Z,67.20
2018-03-11T06:23:47.159Z,68.90
2018-03-11T06:26:13.154Z,68.47
2018-03-11T06:28:39.147Z,66.20
2018-03-11T06:31:05.154Z,67.55
2018-03-11T06:33:31.158Z,64.75
2018-03-11T06:35:57.151Z,63.87
2018-03-11T06:38:23.191Z,65.12
2018-03-11T06:40:49.177Z,62.88
2018-03-11T06:43:15.174Z,62.73
2018-03-11T06:45:41.189Z,63.03
2018-03-11T06:48:07.228Z,60.20
2018-03-11T06:50:33.217Z,58.05
2018-03-11T06:52:59.214Z,58.40
2018-03-11T06:55:25.227Z,57.25
2018-03-11T06:57:51.242Z,61.75
2018-03-11T07:00:17.367Z,58.40
2018-03-11T07:02:43.363Z,61.72
2018-03-11T07:05:09.374Z,58.92
2018-03-11T07:07:35.374Z,56.58
2018-03-11T07:10:01.394Z,50.55
2018-03-11T07:12:27.383Z,52.35
2018-03-11T07:14:53.372Z,57.55
2018-03-11T07:17:19.357Z,60.03
2018-03-11T07:19:45.389Z,63.38
2018-03-11T07:22:11.457Z,57.38
2018-03-11T07:24:37.754Z,63.20
2018-03-11T07:27:03.746Z,61.90
2018-03-11T07:29:29.733Z,64.55
2018-03-11T07:31:55.719Z,69.32
2018-03-11T07:34:21.737Z,66.77
2018-03-11T07:36:47.826Z,70.43
2018-03-11T07:39:14.447Z,64.53
2018-03-11T07:41:40.449Z,64.40
2018-03-11T07:44:06.490Z,65.70
2018-03-11T07:46:33.061Z,66.53
2018-03-11T07:48:59.074Z,67.47
2018-03-11T07:51:25.045Z,68.85
2018-03-11T07:53:51.071Z,69.93
2018-03-11T07:56:17.074Z,68.82
2018-03-11T07:58:43.071Z,68.00
2018-03-11T08:01:09.104Z,67.72
2018-03-11T08:03:35.118Z,72.40
2018-03-11T08:06:01.105Z,68.40
2018-03-11T08:08:27.113Z,67.90
2018-03-11T08:10:53.162Z,66.65
2018-03-11T08:13:19.195Z,62.45
2018-03-11T08:15:45.227Z,59.03
2018-03-11T08:18:11.226Z,66.80
2018-03-11T08:20:37.491Z,69.20
2018-03-11T08:23:03.514Z,64.10
2018-03-11T08:25:29.520Z,60.95
2018-03-11T08:27:55.525Z,64.75
2018-03-11T08:30:21.546Z,66.47
2018-03-11T08:32:47.551Z,68.07
2018-03-11T08:35:13.531Z,68.20
2018-03-11T08:37:39.642Z,58.97
2018-03-11T08:40:05.682Z,62.40
2018-03-11T08:42:31.657Z,68.87
2018-03-11T08:44:57.656Z,62.97
2018-03-11T08:47:23.634Z,67.07
2018-03-11T08:49:49.642Z,68.07
2018-03-11T08:52:15.651Z,67.43
2018-03-11T08:54:41.782Z,70.80
2018-03-11T08:57:07.775Z,68.97
2018-03-11T08:59:33.795Z,77.28
2018-03-11T09:01:59.833Z,73.60
2018-03-11T09:04:25.822Z,75.97
2018-03-11T09:06:51.863Z,72.35
2018-03-11T09:09:17.874Z,61.92
2018-03-11T09:11:43.979Z,69.95
2018-03-11T09:14:09.964Z,67.80
2018-03-11T09:16:35.974Z,67.23
2018-03-11T09:19:02.108Z,72.47
2018-03-11T09:21:28.196Z,59.95
2018-03-11T09:23:54.205Z,47.25
2018-03-11T09:26:20.237Z,39.33
2018-03-11T09:28:47.095Z,34.95
2018-03-11T09:31:13.074Z,24.40
2018-03-11T09:33:41.131Z,21.00
2018-03-11T09:36:07.166Z,17.50
2018-03-11T09:38:33.201Z,14.75
2018-03-11T09:40:59.207Z,13.52
2018-03-11T09:43:25.203Z,12.50
2018-03-11T09:45:51.243Z,12.68
2018-03-11T09:48:17.227Z,12.90
2018-03-11T09:50:43.264Z,13.20
2018-03-11T09:53:09.246Z,12.68
2018-03-11T09:55:35.239Z,14.27
2018-03-11T09:58:01.275Z,15.23
2018-03-11T10:00:27.289Z,14.23
2018-03-11T10:02:53.421Z,14.87
2018-03-11T10:05:19.443Z,15.95
2018-03-11T10:07:45.465Z,15.82
2018-03-11T10:10:12.458Z,16.67
2018-03-11T10:12:38.908Z,16.85
2018-03-11T10:15:04.950Z,16.40
2018-03-11T10:17:30.975Z,18.15
2018-03-11T10:19:56.974Z,19.77
2018-03-11T10:22:23.019Z,22.83
2018-03-11T10:24:49.022Z,20.55
2018-03-11T10:27:15.138Z,19.00
2018-03-11T10:29:41.166Z,22.80
2018-03-11T10:32:07.165Z,20.73
2018-03-11T10:34:33.202Z,22.23
2018-03-11T10:36:59.185Z,22.13
2018-03-11T10:39:25.219Z,21.17
2018-03-11T10:41:51.229Z,19.65
2018-03-11T10:44:17.226Z,19.12
2018-03-11T10:46:43.229Z,19.67
2018-03-11T10:49:09.250Z,19.47
2018-03-11T10:51:35.291Z,17.48
2018-03-11T10:54:01.291Z,16.05
2018-03-11T10:56:28.054Z,17.35
2018-03-11T10:58:54.155Z,15.68
2018-03-11T11:01:20.205Z,15.43
2018-03-11T11:03:52.191Z,17.08
2018-03-11T11:06:18.242Z,15.70
2018-03-11T11:08:44.476Z,16.60
2018-03-11T11:11:10.656Z,17.35
2018-03-11T11:13:36.710Z,17.90
2018-03-11T11:16:02.753Z,14.75
2018-03-11T11:18:28.776Z,12.43
2018-03-11T11:20:54.885Z,11.77
2018-03-11T11:23:20.894Z,11.53
2018-03-11T11:25:46.910Z,10.77
2018-03-11T11:28:13.022Z,9.53
2018-03-11T11:30:39.589Z,11.85
2018-03-11T11:33:05.613Z,11.07
2018-03-11T11:35:31.629Z,12.17
2018-03-11T11:37:57.651Z,10.60
2018-03-11T11:40:23.646Z,7.57
2018-03-11T11:42:49.666Z,7.70
2018-03-11T11:45:15.658Z,7.70
2018-03-11T11:47:41.686Z,6.77
2018-03-11T11:50:07.665Z,6.43
2018-03-11T11:52:33.667Z,6.97
2018-03-11T11:54:59.805Z,7.63
2018-03-11T11:57:25.816Z,7.80
2018-03-11T11:59:51.816Z,8.43
2018-03-11T12:02:17.950Z,8.07
2018-03-11T12:04:44.023Z,7.33
2018-03-11T12:07:10.027Z,6.43
2018-03-11T12:09:36.045Z,6.13
2018-03-11T12:12:02.071Z,6.10
2018-03-11T12:14:28.097Z,6.90
2018-03-11T12:16:54.155Z,7.37
2018-03-11T12:19:20.331Z,5.83
2018-03-11T12:21:46.419Z,6.50
2018-03-11T12:24:12.510Z,6.17
2018-03-11T12:26:38.587Z,6.80
2018-03-11T12:29:04.594Z,5.07
2018-03-11T12:31:30.633Z,5.10
2018-03-11T12:33:56.693Z,5.00
2018-03-11T12:36:22.694Z,4.73
2018-03-11T12:38:48.724Z,4.43
2018-03-11T12:41:15.721Z,5.03
2018-03-11T12:43:41.810Z,5.43
2018-03-11T12:46:07.805Z,5.13
2018-03-11T12:48:33.811Z,4.90
2018-03-11T12:50:59.920Z,4.13
2018-03-11T12:53:26.568Z,4.67
2018-03-11T12:55:52.614Z,3.27
2018-03-11T12:58:18.705Z,3.23
2018-03-11T13:00:44.677Z,2.60
2018-03-11T13:03:10.701Z,3.43
2018-03-11T13:05:36.703Z,3.40
2018-03-11T13:08:02.810Z,3.63
2018-03-11T13:10:28.838Z,3.97
2018-03-11T13:12:54.922Z,3.30
2018-03-11T13:15:21.002Z,3.03
2018-03-11T13:17:47.049Z,3.73
2018-03-11T13:20:25.365Z,3.63
2018-03-11T13:22:51.404Z,3.73
2018-03-11T13:25:17.447Z,2.93
2018-03-11T13:27:55.486Z,2.90
2018-03-11T13:30:21.529Z,3.23
2018-03-11T13:32:59.610Z,3.13
2018-03-11T13:35:25.626Z,3.63
2018-03-11T13:37:51.775Z,3.30
2018-03-11T13:40:29.920Z,3.33
2018-03-11T13:42:55.921Z,3.10
2018-03-11T13:45:34.012Z,3.20
2018-03-11T13:48:00.033Z,2.60
2018-03-11T13:50:26.058Z,2.63
2018-03-11T13:53:04.166Z,3.30
2018-03-11T13:55:30.188Z,2.60
2018-03-11T14:00:59.709Z,2.23
2018-03-11T14:03:25.710Z,2.90
2018-03-11T14:05:51.746Z,2.50
2018-03-11T14:08:17.750Z,2.90
2018-03-11T14:10:43.770Z,2.80
2018-03-11T14:13:09.788Z,2.23
2018-03-11T14:15:35.909Z,2.40
2018-03-11T14:18:01.889Z,2.37
2018-03-11T14:20:27.919Z,2.30
2018-03-11T14:22:53.968Z,3.87
2018-03-11T14:25:19.986Z,4.00
2018-03-11T14:27:46.049Z,3.90
2018-03-11T14:30:12.314Z,4.20
2018-03-11T14:32:38.519Z,3.53
2018-03-11T14:35:05.232Z,3.60
2018-03-11T14:37:31.277Z,3.70
2018-03-11T14:39:57.301Z,3.60
2018-03-11T14:42:23.325Z,4.37
2018-03-11T14:44:49.338Z,3.83
2018-03-11T14:47:15.356Z,4.37
2018-03-11T14:49:41.363Z,4.50
2018-03-11T14:52:07.415Z,4.27
2018-03-11T14:54:33.540Z,4.57
2018-03-11T14:56:59.560Z,4.67
2018-03-11T14:59:25.618Z,4.90
2018-03-11T15:01:51.752Z,4.57
2018-03-11T15:04:17.814Z,5.37
2018-03-11T15:06:43.838Z,4.80
2018-03-11T15:09:09.851Z,5.67
2018-03-11T15:11:36.067Z,4.87
2018-03-11T15:14:02.113Z,4.93
2018-03-11T15:16:28.163Z,5.47
2018-03-11T15:18:54.221Z,5.63
2018-03-11T15:21:20.330Z,5.53
2018-03-11T15:23:46.341Z,5.33
2018-03-11T15:26:12.381Z,5.63
2018-03-11T15:28:38.491Z,6.47
2018-03-11T15:31:04.590Z,6.30
2018-03-11T15:33:30.676Z,6.10
2018-03-11T15:35:56.714Z,6.13
2018-03-11T15:38:22.815Z,7.70
2018-03-11T15:40:48.837Z,8.27
2018-03-11T15:43:35.489Z,9.50
2018-03-11T15:46:01.506Z,9.17
2018-03-11T15:48:27.494Z,8.60
2018-03-11T15:50:53.529Z,8.50
2018-03-11T15:53:19.603Z,8.57
2018-03-11T15:55:45.611Z,8.60
2018-03-11T15:58:11.636Z,7.80
2018-03-11T16:00:37.761Z,7.47
2018-03-11T16:03:03.824Z,8.30
2018-03-11T16:05:29.848Z,7.17
2018-03-11T16:07:55.963Z,7.10
2018-03-11T16:10:21.984Z,6.50
2018-03-11T16:12:48.702Z,6.80
2018-03-11T16:15:14.752Z,7.67
2018-03-11T16:17:40.931Z,7.07
2018-03-11T16:20:07.033Z,6.90
2018-03-11T16:22:33.114Z,6.57
2018-03-11T16:24:59.151Z,6.97
2018-03-11T16:27:25.206Z,6.47
2018-03-11T16:29:51.250Z,6.50
2018-03-11T16:32:17.267Z,6.77
2018-03-11T16:34:43.297Z,7.07
2018-03-11T16:37:09.350Z,6.93
2018-03-11T16:39:35.413Z,8.37
2018-03-11T16:42:01.506Z,7.63
2018-03-11T16:44:27.544Z,8.70
2018-03-11T16:46:53.662Z,10.53
2018-03-11T16:49:19.713Z,10.17
2018-03-11T16:51:45.756Z,9.80
2018-03-11T16:54:11.770Z,9.30
2018-03-11T16:56:37.817Z,8.60
2018-03-11T16:59:03.828Z,8.70
2018-03-11T17:01:29.855Z,8.83
2018-03-11T17:03:55.859Z,9.47
2018-03-11T17:06:21.926Z,8.97
2018-03-11T17:08:48.031Z,9.53
2018-03-11T17:11:14.069Z,9.50
2018-03-11T17:13:40.697Z,9.77
2018-03-11T17:16:06.790Z,10.40
2018-03-11T17:18:32.954Z,10.83
2018-03-11T17:20:58.977Z,10.77
2018-03-11T17:23:25.089Z,11.90
2018-03-11T17:25:51.109Z,12.20
2018-03-11T17:28:17.140Z,12.10
2018-03-11T17:30:43.211Z,11.87
2018-03-11T17:33:09.233Z,12.53
2018-03-11T17:35:35.287Z,11.43
2018-03-11T17:38:01.326Z,12.63
2018-03-11T17:40:27.377Z,11.97
2018-03-11T17:42:53.423Z,12.63
2018-03-11T17:45:19.453Z,13.38
2018-03-11T17:47:45.509Z,13.35
2018-03-11T17:50:11.557Z,12.35
2018-03-11T17:54:01.842Z,13.05
2018-03-11T17:56:27.870Z,13.20
2018-03-11T17:58:53.933Z,14.00
2018-03-11T18:01:20.114Z,12.80
2018-03-11T18:03:46.110Z,12.77
2018-03-11T18:06:12.094Z,11.57
2018-03-11T18:08:38.180Z,13.20
2018-03-11T18:11:04.338Z,12.20
2018-03-11T18:13:30.346Z,12.37
2018-03-11T18:15:56.334Z,12.37
2018-03-11T18:18:22.362Z,11.67
2018-03-11T18:20:48.502Z,12.57
2018-03-11T18:23:14.498Z,13.07
2018-03-11T18:25:40.587Z,13.20
2018-03-11T18:28:06.733Z,13.77
2018-03-11T18:30:32.795Z,14.80
2018-03-11T18:32:58.807Z,14.05
2018-03-11T18:35:24.829Z,14.00
2018-03-11T18:37:51.401Z,14.98
2018-03-11T18:40:17.433Z,13.60
2018-03-11T18:42:43.440Z,16.00
2018-03-11T18:45:09.453Z,14.23
2018-03-11T18:47:35.497Z,13.95
2018-03-11T18:50:01.527Z,15.45
2018-03-11T18:52:27.631Z,15.07
2018-03-11T18:54:53.644Z,15.50
2018-03-11T18:57:19.679Z,16.62
2018-03-11T18:59:45.733Z,17.60
2018-03-11T19:02:11.861Z,15.23
2018-03-11T19:04:37.963Z,16.33
2018-03-11T19:07:04.012Z,16.52
2018-03-11T19:09:30.020Z,17.77
2018-03-11T19:11:56.082Z,16.50
2018-03-11T19:14:22.155Z,17.60
2018-03-11T19:16:48.163Z,17.27
2018-03-11T19:19:14.166Z,17.05
2018-03-11T19:21:40.304Z,17.90
2018-03-11T19:24:06.491Z,18.83
2018-03-11T19:26:32.571Z,18.25
2018-03-11T19:28:58.595Z,17.25
2018-03-11T19:31:24.742Z,17.67
2018-03-11T19:33:50.851Z,18.67
2018-03-11T19:36:16.972Z,20.00
2018-03-11T19:38:43.142Z,18.87
2018-03-11T19:41:09.153Z,20.70
2018-03-11T19:43:35.227Z,20.52
2018-03-11T19:46:01.263Z,20.42
2018-03-11T19:48:27.299Z,21.33
2018-03-11T19:50:53.358Z,20.52
2018-03-11T19:53:19.405Z,19.08
2018-03-11T19:55:45.473Z,21.00
2018-03-11T19:58:11.538Z,20.83
2018-03-11T20:00:37.660Z,23.15
2018-03-11T20:03:04.298Z,22.00
2018-03-11T20:05:30.477Z,21.87
2018-03-11T20:07:56.598Z,20.88
2018-03-11T20:10:22.653Z,21.80
2018-03-11T20:12:49.733Z,23.75
2018-03-11T20:15:15.883Z,23.87
2018-03-11T20:17:42.090Z,25.37
2018-03-11T20:20:08.274Z,23.90
2018-03-11T20:22:34.236Z,23.98
2018-03-11T20:25:00.224Z,24.10
2018-03-11T20:27:26.307Z,25.12
2018-03-11T20:29:52.372Z,22.75
2018-03-11T20:32:18.469Z,26.00
2018-03-11T20:34:44.545Z,26.55
2018-03-11T20:37:10.654Z,26.25
2018-03-11T20:39:36.762Z,25.55
2018-03-11T20:42:02.822Z,24.90
2018-03-11T20:44:28.838Z,27.37
2018-03-11T20:46:55.052Z,26.48
2018-03-11T20:49:21.225Z,25.17
2018-03-11T20:51:47.245Z,25.45
2018-03-11T20:54:13.290Z,29.00
2018-03-11T20:56:39.349Z,27.80
2018-03-11T20:59:06.685Z,25.12
2018-03-11T21:01:32.814Z,23.23
2018-03-11T21:03:59.763Z,26.95
2018-03-11T21:06:25.805Z,24.85
2018-03-11T21:08:51.866Z,24.77
2018-03-11T21:11:17.871Z,26.10
2018-03-11T21:13:43.951Z,25.48
2018-03-11T21:16:10.014Z,24.90
2018-03-11T21:18:36.133Z,24.52
2018-03-11T21:21:02.281Z,26.55
2018-03-11T21:23:28.321Z,24.65
2018-03-11T21:25:54.700Z,23.17
2018-03-11T21:28:21.679Z,23.40
2018-03-11T21:30:47.671Z,22.23
2018-03-11T21:33:13.691Z,21.05
2018-03-11T21:35:46.714Z,23.77
2018-03-11T21:38:12.755Z,22.60
2018-03-11T21:40:39.440Z,21.15
2018-03-11T21:43:05.471Z,20.37
2018-03-11T21:45:31.531Z,19.95
2018-03-11T21:47:57.554Z,19.65
2018-03-11T21:50:23.561Z,18.25
2018-03-11T21:52:49.574Z,17.73
2018-03-11T21:55:15.765Z,16.05
2018-03-11T21:57:41.763Z,15.88
2018-03-11T22:00:07.821Z,15.00
2018-03-11T22:02:33.878Z,14.07
2018-03-11T22:04:59.910Z,13.27
2018-03-11T22:07:25.948Z,14.10
2018-03-11T22:09:51.993Z,12.85
2018-03-11T22:12:18.017Z,12.18
2018-03-11T22:14:44.171Z,13.00
2018-03-11T22:17:10.334Z,12.85
2018-03-11T22:19:36.346Z,10.95
2018-03-11T22:22:02.491Z,10.88
2018-03-11T22:24:28.551Z,11.23
2018-03-11T22:26:54.634Z,11.27
2018-03-11T22:29:20.654Z,12.57
2018-03-11T22:31:46.629Z,12.18
2018-03-11T22:34:12.730Z,12.33
2018-03-11T22:36:38.874Z,11.85
2018-03-11T22:39:04.955Z,12.93
2018-03-11T22:41:30.973Z,11.60
2018-03-11T22:43:57.032Z,13.20
2018-03-11T22:46:23.087Z,12.93
2018-03-11T22:48:49.132Z,12.50
2018-03-11T22:51:15.161Z,12.75
2018-03-11T22:53:41.267Z,13.82
2018-03-11T22:56:07.302Z,14.32
2018-03-11T22:58:33.319Z,14.05
2018-03-11T23:00:59.368Z,14.52
2018-03-11T23:03:25.499Z,14.32
2018-03-11T23:05:51.524Z,14.32
2018-03-11T23:08:17.592Z,13.85
2018-03-11T23:10:44.390Z,14.05
2018-03-11T23:13:10.608Z,13.60
2018-03-11T23:15:36.695Z,13.77
2018-03-11T23:18:02.783Z,13.35
2018-03-11T23:20:28.788Z,12.55
2018-03-11T23:22:55.008Z,11.38
2018-03-11T23:25:21.126Z,12.32
2018-03-11T23:27:47.206Z,12.37
2018-03-11T23:30:13.266Z,12.35
2018-03-11T23:32:39.250Z,12.25
2018-03-11T23:35:05.325Z,12.47
2018-03-11T23:37:31.338Z,13.30
2018-03-11T23:39:57.358Z,13.55
2018-03-11T23:42:23.370Z,12.25
2018-03-11T23:44:49.373Z,12.37
2018-03-11T23:47:15.383Z,12.02
2018-03-11T23:49:41.365Z,11.52
2018-03-11T23:52:07.400Z,12.33
2018-03-11T23:54:33.415Z,10.68
2018-03-11T23:56:59.425Z,11.00
2018-03-11T23:59:25.453Z,11.40
